Time;durP1;ratioP1;P1;durP2;ratioP2;P2;SDS_P1;SDS_P2;PMS_P1;PMS_P2;Temp;Humidity;BMP_temperature;BMP_pressure;BME280_temperature;BME280_humidity;BME280_pressure;Samples;Min_cycle;Max_cycle;Signal;HPM_P1;HPM_P2
2022/03/16 00:00:19;;;;;;;1.20;0.70;;;8.30;1.40;;;9.06;100.00;95907.48;646691;216;31550;-76
2022/03/16 00:03:06;;;;;;;1.10;0.90;;;8.30;1.40;;;9.00;100.00;95909.54;622591;222;32493;-79
2022/03/16 00:05:48;;;;;;;1.30;0.90;;;8.30;1.40;;;9.10;100.00;95914.48;622257;222;32438;-78
2022/03/16 00:08:36;;;;;;;1.30;0.98;;;8.30;1.40;;;9.10;100.00;95917.03;635746;216;31745;-76
2022/03/16 00:11:20;;;;;;;1.47;1.03;;;8.30;1.40;;;9.21;100.00;95916.58;650842;212;32052;-78
2022/03/16 00:14:07;;;;;;;1.92;0.82;;;8.30;1.40;;;9.20;100.00;95926.22;647304;216;31641;-76
2022/03/16 00:16:55;;;;;;;0.80;0.70;;;8.40;1.40;;;9.27;100.00;95926.75;648865;212;31509;-77
2022/03/16 00:19:44;;;;;;;1.20;1.10;;;8.30;1.40;;;9.21;100.00;95929.02;646372;212;31536;-76
2022/03/16 00:22:30;;;;;;;1.40;1.30;;;8.30;1.40;;;9.24;100.00;95930.47;620420;222;32493;-78
2022/03/16 00:25:12;;;;;;;1.60;0.70;;;8.30;1.40;;;9.26;100.00;95930.66;647408;212;31501;-78
2022/03/16 00:27:54;;;;;;;1.00;0.80;;;8.20;1.40;;;9.22;100.00;95935.07;621782;226;31809;-78
2022/03/16 00:30:42;;;;;;;0.80;0.70;;;8.20;1.40;;;9.16;100.00;95942.16;646209;216;31565;-75
2022/03/16 00:35:50;;;;;;;1.60;1.10;;;8.00;1.40;;;9.21;100.00;95939.09;632063;222;31736;-77
2022/03/16 00:38:33;;;;;;;1.40;1.30;;;8.00;1.40;;;9.09;100.00;95945.59;620392;222;31907;-77
2022/03/16 00:41:20;;;;;;;1.10;1.00;;;8.00;1.40;;;8.94;100.00;95940.41;646676;216;31559;-75
2022/03/16 00:44:08;;;;;;;2.17;1.37;;;8.00;1.40;;;8.85;100.00;95942.78;646708;212;32179;-78
2022/03/16 00:46:50;;;;;;;1.42;1.20;;;7.90;1.40;;;8.99;100.00;95943.19;646751;216;31538;-78
2022/03/16 00:49:37;;;;;;;1.50;1.40;;;7.90;1.40;;;8.88;100.00;95942.11;646092;212;42235;-75
2022/03/16 00:52:26;;;;;;;1.33;1.23;;;7.80;1.40;;;8.52;100.00;95937.38;646465;216;31515;-79
2022/03/16 00:55:14;;;;;;;1.03;0.93;;;7.70;1.40;;;8.60;100.00;95937.62;646989;216;31571;-76
2022/03/16 00:57:55;;;;;;;1.30;1.20;;;7.60;1.40;;;8.54;100.00;95936.23;618697;226;32565;-76
2022/03/16 01:00:39;;;;;;;1.00;0.50;;;7.60;1.40;;;8.68;100.00;95934.38;647942;216;31623;-78
2022/03/16 01:03:27;;;;;;;1.70;1.50;;;7.60;1.40;;;8.73;100.00;95938.08;647665;216;32339;-77
2022/03/16 01:06:15;;;;;;;1.87;1.50;;;7.60;1.40;;;8.64;100.00;95935.59;646967;216;31573;-78
2022/03/16 01:09:00;;;;;;;1.10;1.00;;;7.60;1.40;;;8.65;100.00;95934.88;648892;216;31543;-77
2022/03/16 01:11:42;;;;;;;1.48;1.33;;;7.60;1.40;;;8.55;100.00;95936.22;642853;217;31489;-78
2022/03/16 01:14:24;;;;;;;1.80;1.70;;;7.60;1.40;;;8.58;100.00;95934.17;646967;216;31713;-78
2022/03/16 01:17:06;;;;;;;1.75;1.37;;;7.60;1.40;;;8.57;100.00;95931.59;644407;214;31581;-78
2022/03/16 01:19:48;;;;;;;1.30;1.20;;;7.50;1.40;;;8.55;100.00;95933.38;621717;222;31999;-79
2022/03/16 01:22:38;;;;;;;3.47;1.90;;;7.50;1.40;;;8.53;100.00;95932.06;645295;214;31603;-76
2022/03/16 01:25:20;;;;;;;2.30;2.10;;;7.50;1.40;;;8.52;100.00;95927.31;646099;216;31660;-75
2022/03/16 01:28:02;;;;;;;2.80;1.62;;;7.50;1.40;;;8.51;100.00;95925.97;646359;216;31753;-76
2022/03/16 01:30:43;;;;;;;3.60;2.00;;;7.50;1.40;;;8.56;100.00;95928.73;648191;216;31659;-77
2022/03/16 01:35:53;;;;;;;3.15;2.08;;;7.50;1.40;;;8.44;100.00;95932.66;646660;212;32449;-76
2022/03/16 01:38:40;;;;;;;4.00;2.73;;;7.50;1.40;;;8.32;100.00;95932.13;647174;212;31581;-76
2022/03/16 01:41:22;;;;;;;1.37;1.27;;;7.40;1.40;;;8.41;100.00;95927.00;644197;216;31705;-76
2022/03/16 01:44:10;;;;;;;1.70;1.45;;;7.40;1.40;;;8.46;100.00;95925.03;645992;212;42199;-75
2022/03/16 01:46:58;;;;;;;1.30;1.20;;;7.50;1.40;;;8.45;100.00;95922.38;621839;222;32078;-77
2022/03/16 01:49:45;;;;;;;6.30;1.80;;;7.40;1.40;;;8.40;100.00;95924.52;646836;216;31559;-76
2022/03/16 01:52:33;;;;;;;2.57;1.70;;;7.50;1.40;;;8.40;100.00;95921.17;647199;216;32400;-76
2022/03/16 01:55:15;;;;;;;1.48;1.27;;;7.40;1.40;;;8.33;100.00;95923.37;647914;216;31575;-78
2022/03/16 01:57:56;;;;;;;3.33;2.20;;;7.40;1.40;;;8.32;100.00;95920.30;648943;216;31564;-78
2022/03/16 02:00:39;;;;;;;3.75;1.42;;;7.50;1.40;;;8.27;100.00;95916.81;648611;212;31709;-78
2022/03/16 02:03:27;;;;;;;2.07;1.90;;;7.40;1.40;;;8.26;100.00;95919.47;631432;217;31723;-76
2022/03/16 02:06:16;;;;;;;3.20;2.90;;;7.40;1.40;;;8.28;100.00;95922.97;645813;215;31700;-77
2022/03/16 02:09:06;;;;;;;2.53;2.10;;;7.40;1.40;;;8.29;100.00;95922.91;661298;212;31402;-77
2022/03/16 02:12:06;;;;;;;2.80;1.80;;;7.40;1.40;;;8.42;100.00;95923.33;646611;215;31609;-76
2022/03/16 02:14:50;;;;;;;2.60;2.40;;;7.40;1.40;;;8.46;100.00;95925.52;647013;212;31558;-75
2022/03/16 02:17:56;;;;;;;2.47;2.28;;;7.50;1.40;;;8.50;100.00;95918.25;649945;212;31675;-77
2022/03/16 02:20:38;;;;;;;3.80;3.13;;;7.40;1.40;;;8.60;100.00;95920.75;648425;216;31524;-78
2022/03/16 02:23:25;;;;;;;4.32;2.87;;;7.50;1.40;;;8.57;100.00;95928.72;640758;217;37028;-75
2022/03/16 02:26:08;;;;;;;2.30;1.80;;;7.50;1.40;;;8.53;100.00;95931.80;647822;212;32708;-74
2022/03/16 02:28:53;;;;;;;4.05;3.20;;;7.50;1.40;;;8.58;100.00;95931.58;646615;212;31687;-75
2022/03/16 02:31:40;;;;;;;3.73;2.27;;;7.50;1.40;;;8.61;100.00;95934.20;648316;212;32099;-77
2022/03/16 02:35:50;;;;;;;3.60;2.40;;;7.50;1.40;;;8.60;100.00;95937.34;619665;226;32194;-77
2022/03/16 02:38:32;;;;;;;3.90;2.27;;;7.50;1.40;;;8.63;100.00;95936.19;620859;226;31950;-77
2022/03/16 02:41:16;;;;;;;3.27;2.87;;;7.50;1.40;;;8.60;100.00;95940.86;645382;216;31601;-76
2022/03/16 02:44:04;;;;;;;2.85;1.83;;;7.50;1.40;;;8.69;100.00;95945.52;643985;216;36461;-77
2022/03/16 02:46:46;;;;;;;2.60;1.33;;;7.50;1.40;;;8.79;100.00;95945.95;647989;216;31748;-76
2022/03/16 02:49:28;;;;;;;2.90;2.63;;;7.50;1.40;;;8.78;100.00;95943.75;648629;212;32171;-78
2022/03/16 02:52:11;;;;;;;2.13;1.90;;;7.50;1.40;;;8.65;100.00;95946.29;647118;216;31562;-77
2022/03/16 02:54:52;;;;;;;5.50;2.80;;;7.50;1.40;;;8.62;100.00;95947.06;648551;216;31570;-77
2022/03/16 02:57:40;;;;;;;2.93;2.70;;;7.40;1.40;;;8.55;100.00;95952.27;647734;216;31650;-76
2022/03/16 03:00:27;;;;;;;2.40;2.20;;;7.40;1.40;;;8.55;100.00;95958.86;646097;216;31638;-77
2022/03/16 03:03:09;;;;;;;2.80;1.80;;;7.30;1.40;;;8.55;100.00;95959.16;620144;222;32147;-78
2022/03/16 03:05:52;;;;;;;4.80;2.70;;;7.40;1.40;;;8.67;100.00;95956.61;647804;212;31579;-77
2022/03/16 03:08:33;;;;;;;4.07;1.80;;;7.40;1.40;;;8.79;100.00;95964.06;647667;212;32005;-77
2022/03/16 03:11:15;;;;;;;3.00;2.70;;;7.40;1.40;;;8.76;100.00;95966.80;646353;212;31601;-77
2022/03/16 03:13:57;;;;;;;3.40;3.03;;;7.40;1.40;;;8.71;100.00;95970.04;621628;226;32269;-78
2022/03/16 03:16:39;;;;;;;3.17;2.87;;;7.40;1.40;;;8.43;100.00;95969.80;646947;216;31590;-78
2022/03/16 03:19:22;;;;;;;4.27;3.17;;;7.30;1.40;;;8.19;100.00;95964.55;646520;216;31611;-77
2022/03/16 03:22:05;;;;;;;3.25;2.60;;;7.20;1.40;;;8.35;100.00;95963.48;646717;212;31585;-76
2022/03/16 03:24:46;;;;;;;2.10;1.90;;;7.20;1.40;;;8.29;100.00;95963.38;647937;216;31576;-78
2022/03/16 03:27:32;;;;;;;7.72;3.90;;;7.20;1.40;;;8.32;100.00;95960.81;620111;226;32525;-77
2022/03/16 03:30:13;;;;;;;7.35;3.33;;;7.20;1.40;;;8.43;100.00;95969.14;647974;212;31551;-76
2022/03/16 03:32:55;;;;;;;3.40;2.23;;;7.20;1.40;;;8.39;100.00;95969.16;620014;226;32300;-77
2022/03/16 03:35:50;;;;;;;3.28;2.47;;;7.20;1.40;;;8.28;100.00;95975.70;647952;212;31583;-77
2022/03/16 03:38:32;;;;;;;5.20;4.37;;;7.10;1.40;;;7.97;100.00;95974.62;619615;226;32546;-76
2022/03/16 03:41:14;;;;;;;3.50;2.57;;;6.90;1.40;;;7.98;100.00;95973.48;646871;216;31588;-77
2022/03/16 03:43:59;;;;;;;5.18;2.53;;;6.90;1.40;;;8.20;100.00;95976.75;647760;212;42902;-77
2022/03/16 03:46:41;;;;;;;3.78;3.47;;;6.90;1.40;;;7.91;100.00;95977.55;646996;216;31553;-77
2022/03/16 03:49:28;;;;;;;3.10;2.80;;;6.80;1.40;;;7.75;100.00;95988.52;646531;216;31549;-77
2022/03/16 03:52:12;;;;;;;4.62;3.50;;;6.70;1.40;;;7.52;100.00;95985.78;647296;216;31607;-76
2022/03/16 03:54:54;;;;;;;5.90;3.93;;;6.70;1.40;;;7.59;100.00;95988.91;648452;212;31515;-77
2022/03/16 03:57:38;;;;;;;4.50;3.00;;;6.70;1.40;;;7.39;100.00;95987.02;619043;222;32049;-76
2022/03/16 04:00:25;;;;;;;3.78;2.75;;;6.60;1.40;;;7.35;100.00;95988.14;644107;216;31636;-78
2022/03/16 04:03:07;;;;;;;4.55;3.25;;;6.60;1.40;;;7.44;100.00;95985.84;648976;216;42176;-78
2022/03/16 04:05:49;;;;;;;4.10;2.90;;;6.60;1.40;;;7.33;100.00;95987.93;648589;212;31605;-77
2022/03/16 04:08:30;;;;;;;3.43;2.93;;;6.50;1.40;;;7.32;100.00;95993.76;648730;212;31769;-77
2022/03/16 04:11:14;;;;;;;3.87;3.53;;;6.50;1.40;;;7.53;100.00;95997.92;642443;215;31569;-77
2022/03/16 04:14:02;;;;;;;4.50;2.80;;;6.50;1.40;;;7.34;100.00;96000.17;649657;216;31584;-78
2022/03/16 04:16:49;;;;;;;4.07;3.67;;;6.50;1.40;;;7.50;100.00;96005.70;647579;212;31570;-76
2022/03/16 04:19:31;;;;;;;4.40;3.13;;;6.50;1.40;;;7.68;100.00;96009.27;618574;226;31928;-76
2022/03/16 04:22:19;;;;;;;5.90;5.30;;;6.50;1.40;;;7.54;100.00;96011.79;647871;216;31549;-76
2022/03/16 04:25:01;;;;;;;5.20;2.87;;;6.50;1.40;;;7.57;100.00;96012.70;621470;226;32069;-77
2022/03/16 04:27:42;;;;;;;5.47;3.37;;;6.50;1.40;;;7.41;100.00;96016.73;648102;216;31552;-77
2022/03/16 04:30:30;;;;;;;4.70;3.73;;;6.50;1.40;;;7.56;100.00;96023.50;645707;212;31628;-75
2022/03/16 04:35:57;;;;;;;4.20;3.60;;;6.50;1.40;;;7.52;100.00;96021.67;648658;216;31575;-78
2022/03/16 04:38:39;;;;;;;5.57;2.75;;;6.50;1.40;;;7.51;100.00;96024.15;620281;222;31893;-79
2022/03/16 04:41:21;;;;;;;3.50;2.77;;;6.50;1.40;;;7.78;100.00;96021.66;647338;216;31569;-77
2022/03/16 04:44:02;;;;;;;3.13;1.93;;;6.50;1.40;;;7.64;100.00;96022.92;619480;226;32043;-77
2022/03/16 04:46:44;;;;;;;3.62;3.33;;;6.50;1.40;;;7.08;100.00;96030.94;649288;212;31563;-77
2022/03/16 04:49:26;;;;;;;3.70;2.80;;;6.20;1.40;;;7.04;100.00;96034.67;647245;216;31574;-78
2022/03/16 04:52:11;;;;;;;3.15;1.95;;;6.20;1.40;;;7.03;100.00;96035.16;648569;216;31585;-78
2022/03/16 04:54:53;;;;;;;5.55;3.85;;;6.10;1.40;;;6.97;100.00;96038.70;649024;216;37331;-78
2022/03/16 04:57:36;;;;;;;1.50;1.40;;;6.10;1.40;;;7.00;100.00;96039.89;646891;216;31603;-76
2022/03/16 05:00:34;;;;;;;4.65;2.33;;;6.10;1.40;;;6.95;100.00;96047.98;619754;222;42618;-77
2022/03/16 05:03:15;;;;;;;3.50;2.30;;;6.10;1.40;;;7.10;100.00;96045.92;649959;212;31544;-78
2022/03/16 05:05:58;;;;;;;3.63;3.33;;;6.10;1.40;;;6.88;100.00;96042.44;653622;212;23458;-76
2022/03/16 05:08:45;;;;;;;4.68;3.00;;;6.00;1.40;;;6.86;100.00;96047.39;648007;213;31529;-77
2022/03/16 05:11:24;;;;;;;1.73;1.63;;;6.00;1.40;;;6.82;100.00;96052.07;655625;212;23462;-79
2022/03/16 05:14:10;;;;;;;5.30;3.10;;;6.00;1.40;;;6.72;100.00;96057.43;648226;216;31568;-78
2022/03/16 05:16:58;;;;;;;4.37;3.00;;;5.90;1.40;;;6.75;100.00;96068.70;646171;213;31674;-75
2022/03/16 05:19:39;;;;;;;5.10;4.60;;;5.90;1.40;;;6.79;100.00;96070.23;631498;221;31919;-75
2022/03/16 05:22:21;;;;;;;4.57;3.23;;;5.80;1.40;;;6.73;100.00;96079.10;646398;212;31594;-75
2022/03/16 05:25:07;;;;;;;3.95;3.40;;;5.70;1.40;;;6.55;100.00;96086.98;620545;222;42540;-78
2022/03/16 05:27:48;;;;;;;5.90;4.12;;;5.50;1.40;;;6.57;100.00;96087.62;649720;212;42197;-78
2022/03/16 05:30:30;;;;;;;5.45;3.00;;;5.50;1.40;;;6.39;100.00;96089.14;647590;216;42822;-78
2022/03/16 05:36:07;;;;;;;3.60;3.28;;;5.30;1.40;;;6.33;100.00;96094.45;651616;216;32131;-79
2022/03/16 05:38:55;;;;;;;4.93;3.60;;;5.30;1.40;;;6.42;100.00;96100.95;647251;212;31921;-77
2022/03/16 05:41:50;;;;;;;5.80;4.62;;;5.30;1.40;;;6.56;100.00;96104.27;646201;216;31669;-78
2022/03/16 05:44:55;;;;;;;5.25;3.90;;;5.30;1.40;;;6.63;100.00;96111.84;672256;208;31242;-76
2022/03/16 05:47:51;;;;;;;4.32;2.45;;;5.30;1.40;;;6.34;100.00;96114.86;644662;215;31587;-77
2022/03/16 05:53:36;;;;;;;5.75;4.05;;;5.20;1.40;;;6.47;100.00;96119.50;649963;212;31573;-78
2022/03/16 05:56:18;;;;;;;21.40;3.75;;;5.20;1.40;;;6.35;100.00;96126.77;648139;216;31524;-78
2022/03/16 05:59:00;;;;;;;4.90;3.65;;;5.20;1.40;;;6.39;100.00;96131.48;648746;216;31621;-77
2022/03/16 06:01:42;;;;;;;3.60;3.40;;;5.20;1.40;;;6.35;100.00;96138.67;646857;212;31564;-78
2022/03/16 06:04:23;;;;;;;4.05;3.25;;;5.20;1.40;;;6.24;100.00;96146.22;648389;212;42182;-77
2022/03/16 06:07:05;;;;;;;4.28;2.87;;;5.20;1.40;;;6.47;100.00;96143.69;614916;222;32695;-78
2022/03/16 06:09:47;;;;;;;2.90;1.70;;;5.30;1.40;;;6.57;100.00;96143.13;647734;212;32176;-77
2022/03/16 06:12:29;;;;;;;6.78;3.58;;;5.30;1.40;;;6.63;100.00;96146.01;648084;212;32147;-78
2022/03/16 06:15:10;;;;;;;5.50;4.10;;;5.30;1.40;;;6.53;100.00;96153.17;646724;212;42921;-78
2022/03/16 06:18:00;;;;;;;4.22;2.65;;;5.30;1.40;;;6.50;100.00;96154.70;615698;224;31912;-76
2022/03/16 06:31:12;;;;;;;3.20;2.87;;;5.30;1.40;;;6.48;100.00;96166.91;636170;220;31819;-76
2022/03/16 06:36:02;;;;;;;7.85;4.32;;;5.30;1.40;;;6.45;100.00;96168.19;624074;226;31894;-77
2022/03/16 06:39:01;;;;;;;10.50;4.00;;;5.30;1.40;;;6.47;100.00;96174.07;654713;212;26350;-77
2022/03/16 06:42:03;;;;;;;14.00;4.30;;;5.30;1.40;;;6.38;100.00;96176.39;646892;220;24469;-77
2022/03/16 06:44:53;;;;;;;5.78;2.90;;;5.20;1.40;;;5.77;100.00;96181.64;646065;212;31587;-75
2022/03/16 06:47:44;;;;;;;9.68;4.70;;;5.10;1.40;;;5.81;100.00;96177.64;647011;216;32426;-76
2022/03/16 06:50:35;;;;;;;3.20;2.50;;;5.10;1.40;;;5.93;100.00;96170.55;646420;216;31567;-75
2022/03/16 06:53:23;;;;;;;7.10;4.95;;;5.20;1.40;;;6.01;100.00;96175.33;648200;212;31565;-76
2022/03/16 06:56:04;;;;;;;4.30;3.95;;;5.20;1.40;;;5.85;100.00;96179.23;647701;212;31626;-76
2022/03/16 06:58:49;;;;;;;6.07;4.53;;;5.20;1.40;;;5.89;100.00;96180.77;647062;212;32023;-77
2022/03/16 07:01:31;;;;;;;6.25;4.28;;;5.20;1.40;;;5.82;100.00;96184.48;646784;212;42201;-77
2022/03/16 07:04:13;;;;;;;6.22;3.85;;;5.20;1.40;;;6.04;100.00;96192.41;619823;222;42580;-77
2022/03/16 07:06:55;;;;;;;6.72;4.72;;;5.30;1.40;;;6.11;100.00;96190.41;646969;216;31571;-77
2022/03/16 07:09:37;;;;;;;4.65;3.22;;;5.30;1.40;;;6.05;100.00;96183.70;646432;216;42228;-77
2022/03/16 07:12:19;;;;;;;4.55;4.03;;;5.30;1.40;;;6.28;100.00;96188.84;647148;212;42179;-77
2022/03/16 07:15:02;;;;;;;5.20;4.40;;;5.40;1.40;;;6.43;100.00;96189.39;647146;212;42798;-77
2022/03/16 07:17:50;;;;;;;5.82;3.90;;;5.40;1.40;;;6.52;100.00;96192.71;644310;215;42265;-76
2022/03/16 07:20:32;;;;;;;4.50;3.22;;;5.40;1.40;;;6.70;100.00;96195.00;646983;216;42163;-76
2022/03/16 07:23:15;;;;;;;4.50;3.58;;;5.50;1.40;;;6.68;100.00;96199.05;618916;226;31955;-77
2022/03/16 07:25:59;;;;;;;4.22;3.83;;;5.50;1.40;;;6.77;100.00;96204.30;619807;222;32090;-76
2022/03/16 07:28:41;;;;;;;5.25;3.80;;;5.50;1.40;;;6.74;100.00;96204.08;619752;226;31922;-76
2022/03/16 07:31:27;;;;;;;2.80;1.77;;;5.50;1.40;;;6.79;100.00;96203.88;653912;212;27676;-76
2022/03/16 07:35:57;;;;;;;4.32;3.92;;;5.50;1.40;;;6.75;100.00;96206.61;641787;216;31585;-75
2022/03/16 07:38:39;;;;;;;6.00;3.70;;;5.60;1.40;;;6.61;100.00;96207.20;646759;216;31815;-76
2022/03/16 07:41:42;;;;;;;5.10;4.22;;;5.60;1.40;;;6.92;100.00;96207.42;651897;212;42249;-77
2022/03/16 07:44:38;;;;;;;5.67;3.93;;;5.60;1.40;;;6.97;100.00;96209.02;650598;212;31505;-78
2022/03/16 07:47:26;;;;;;;4.00;3.10;;;5.60;1.40;;;6.97;100.00;96210.73;646378;213;42599;-75
2022/03/16 07:50:09;;;;;;;5.97;3.78;;;5.60;1.40;;;7.05;100.00;96213.63;648202;216;42284;-78
2022/03/16 07:52:51;;;;;;;8.63;4.22;;;5.70;1.40;;;7.07;100.00;96213.08;619432;226;42525;-78
2022/03/16 07:55:39;;;;;;;4.43;3.50;;;5.70;1.40;;;7.15;100.00;96216.82;647048;216;31662;-77
2022/03/16 07:58:27;;;;;;;5.60;3.28;;;5.70;1.40;;;7.29;100.00;96220.36;616890;227;31907;-77
2022/03/16 08:03:50;;;;;;;5.40;4.63;;;5.90;1.40;;;7.43;100.00;96222.23;646683;216;31586;-78
2022/03/16 08:06:32;;;;;;;6.78;4.00;;;5.80;1.40;;;7.35;100.00;96218.27;616633;226;42780;-78
2022/03/16 08:09:17;;;;;;;4.25;3.65;;;5.80;1.40;;;7.30;100.00;96220.25;646398;216;31624;-77
2022/03/16 08:11:59;;;;;;;4.20;3.07;;;5.80;1.40;;;7.16;100.00;96221.73;647369;212;31563;-78
2022/03/16 08:14:45;;;;;;;5.75;4.30;;;5.80;1.40;;;7.44;100.00;96225.88;601565;233;32285;-78
2022/03/16 08:17:27;;;;;;;5.30;4.10;;;5.80;1.40;;;7.42;100.00;96224.01;646999;212;31592;-78
2022/03/16 08:20:09;;;;;;;5.72;4.37;;;5.80;1.40;;;7.51;100.00;96225.25;647209;216;31601;-79
2022/03/16 08:22:57;;;;;;;5.80;5.20;;;5.90;1.40;;;7.60;100.00;96221.44;645408;212;42171;-76
2022/03/16 08:25:41;;;;;;;5.13;3.67;;;6.10;1.40;;;7.50;100.00;96222.17;647904;212;31570;-78
2022/03/16 08:28:23;;;;;;;4.35;3.70;;;6.00;1.40;;;7.41;100.00;96223.14;647691;216;31787;-78
2022/03/16 08:31:08;;;;;;;6.57;4.67;;;6.00;1.40;;;7.79;100.00;96227.71;646408;216;31563;-77
2022/03/16 08:35:51;;;;;;;6.15;4.55;;;6.10;1.40;;;7.71;100.00;96226.89;647879;212;31634;-78
2022/03/16 08:38:33;;;;;;;5.50;4.28;;;6.10;1.40;;;7.80;100.00;96231.92;647146;216;31570;-79
2022/03/16 08:41:18;;;;;;;4.75;3.10;;;6.10;1.40;;;7.82;100.00;96229.53;619516;226;31882;-78
2022/03/16 08:44:00;;;;;;;5.25;4.28;;;6.10;1.40;;;7.84;100.00;96233.91;646136;216;42944;-79
2022/03/16 08:46:41;;;;;;;5.03;4.53;;;6.20;1.40;;;7.54;100.00;96232.06;647620;212;31628;-77
2022/03/16 08:49:23;;;;;;;6.00;4.57;;;6.10;1.40;;;7.39;100.00;96232.58;620244;222;31953;-77
2022/03/16 08:52:11;;;;;;;6.25;5.62;;;6.00;1.40;;;6.94;100.00;96241.07;641925;215;31606;-77
2022/03/16 08:54:59;;;;;;;8.33;5.80;;;5.90;1.40;;;6.58;100.00;96236.61;647389;216;32004;-78
2022/03/16 08:57:43;;;;;;;4.97;4.28;;;5.80;1.40;;;6.91;100.00;96237.77;621249;222;32048;-79
2022/03/16 09:00:22;;;;;;;7.60;6.10;;;6.00;1.40;;;7.07;100.00;96241.38;646721;213;31679;-78
2022/03/16 09:03:10;;;;;;;6.57;4.20;;;6.10;1.40;;;7.57;100.00;96234.17;645346;212;32472;-76
2022/03/16 09:05:59;;;;;;;15.73;5.57;;;6.30;1.40;;;7.25;100.00;96234.05;647634;216;31799;-77
2022/03/16 09:08:39;;;;;;;6.00;4.28;;;6.20;1.40;;;6.83;100.00;96234.95;647961;216;31597;-77
2022/03/16 09:11:21;;;;;;;7.57;5.20;;;6.00;1.40;;;6.58;100.00;96228.90;619038;225;31924;-77
2022/03/16 09:14:05;;;;;;;6.20;3.50;;;5.90;1.40;;;6.57;100.00;96230.24;647570;212;32044;-77
2022/03/16 09:16:47;;;;;;;7.53;4.97;;;5.90;1.40;;;6.89;100.00;96228.81;649195;216;31581;-79
2022/03/16 09:19:35;;;;;;;7.62;4.68;;;6.10;1.40;;;6.95;100.00;96229.16;646954;216;31590;-76
2022/03/16 09:22:19;;;;;;;6.63;4.50;;;6.10;1.40;;;7.25;100.00;96232.42;647677;216;32309;-77
2022/03/16 09:25:02;;;;;;;5.65;3.97;;;6.20;1.40;;;6.90;100.00;96232.75;616545;225;31938;-79
2022/03/16 09:27:44;;;;;;;6.32;4.78;;;6.10;1.40;;;7.24;100.00;96234.66;621548;222;31928;-79
2022/03/16 09:30:26;;;;;;;10.32;6.32;;;6.20;1.40;;;7.62;100.00;96236.05;619943;226;32072;-77
2022/03/16 09:35:51;;;;;;;6.05;5.18;;;6.50;1.40;;;7.50;100.00;96239.92;648138;212;31567;-80
2022/03/16 09:38:34;;;;;;;4.70;4.03;;;6.30;1.40;;;7.23;100.00;96239.50;643102;216;31530;-76
2022/03/16 09:41:18;;;;;;;8.50;5.37;;;6.20;1.40;;;7.36;100.00;96237.38;631273;222;31801;-80
2022/03/16 09:44:00;;;;;;;6.90;5.30;;;6.20;1.40;;;7.25;100.00;96235.36;648512;212;31584;-80
2022/03/16 09:46:44;;;;;;;7.50;5.00;;;6.30;1.40;;;6.97;100.00;96229.66;621243;222;32071;-80
2022/03/16 09:49:27;;;;;;;6.40;5.32;;;6.20;1.40;;;7.06;100.00;96222.37;634066;222;32389;-78
2022/03/16 09:52:13;;;;;;;7.12;5.95;;;6.40;1.40;;;7.01;100.00;96217.11;617381;224;31911;-80
2022/03/16 09:54:56;;;;;;;5.90;5.27;;;6.30;1.40;;;7.08;100.00;96209.78;620878;222;32040;-79
2022/03/16 09:57:44;;;;;;;8.95;7.22;;;6.50;1.40;;;7.09;100.00;96208.55;646384;216;31660;-76
2022/03/16 10:00:25;;;;;;;5.00;4.30;;;6.60;1.40;;;7.91;100.00;96209.12;619361;222;31998;-78
2022/03/16 10:03:07;;;;;;;8.20;5.15;;;7.30;1.40;;;8.66;100.00;96205.92;645327;216;31580;-77
2022/03/16 10:05:50;;;;;;;7.60;5.27;;;7.90;1.40;;;8.49;100.00;96207.77;646299;216;31595;-76
2022/03/16 10:08:37;;;;;;;7.90;6.00;;;7.60;1.40;;;8.92;100.00;96217.24;648250;212;31637;-78
2022/03/16 10:14:11;;;;;;;6.53;5.05;;;8.20;1.40;;;8.79;100.00;96219.82;649159;212;31563;-79
2022/03/16 10:19:49;;;;;;;5.80;4.97;;;7.40;1.40;;;8.48;100.00;96225.06;645399;216;31706;-77
2022/03/16 10:22:31;;;;;;;8.77;5.63;;;7.40;1.40;;;8.31;100.00;96227.83;619296;222;32937;-76
2022/03/16 10:25:19;;;;;;;9.25;5.97;;;7.30;1.40;;;8.62;100.00;96222.20;616628;226;31875;-79
2022/03/16 10:28:11;;;;;;;7.70;6.20;;;7.40;1.40;;;7.97;100.00;96222.04;620811;226;32068;-80
2022/03/16 10:30:58;;;;;;;5.90;5.30;;;7.10;1.40;;;8.26;100.00;96226.75;647261;212;31816;-80
2022/03/16 10:36:18;;;;;;;8.48;4.40;;;7.10;1.40;;;8.31;100.00;96228.85;622585;222;31941;-80
2022/03/16 10:39:10;;;;;;;7.10;5.65;;;7.40;1.40;;;9.06;100.00;96222.42;638396;217;42940;-79
2022/03/16 10:47:53;;;;;;;5.85;4.90;;;7.40;1.40;;;7.93;100.00;96221.66;650301;215;31531;-80
2022/03/16 10:53:18;;;;;;;4.68;3.60;;;7.20;1.40;;;7.78;100.00;96219.07;642987;215;42233;-80
2022/03/16 10:56:01;;;;;;;7.35;4.85;;;7.10;1.40;;;8.03;100.00;96212.41;647740;216;31569;-78
2022/03/16 10:58:53;;;;;;;5.57;5.03;;;7.20;1.40;;;8.21;100.00;96207.25;647022;216;32182;-76
2022/03/16 11:01:41;;;;;;;7.40;4.80;;;7.40;1.40;;;8.22;100.00;96210.27;643687;215;42213;-80
2022/03/16 11:04:25;;;;;;;7.50;5.37;;;7.30;1.40;;;7.97;100.00;96205.67;619087;222;32031;-80
2022/03/16 11:07:05;;;;;;;6.10;4.97;;;7.20;1.40;;;8.05;100.00;96204.73;618965;222;32002;-79
2022/03/16 11:09:51;;;;;;;5.30;4.70;;;7.40;1.40;;;8.24;100.00;96202.55;647171;212;31831;-76
2022/03/16 11:15:15;;;;;;;6.68;4.57;;;7.90;1.40;;;8.68;100.00;96192.03;646874;212;32148;-78
2022/03/16 11:18:02;;;;;;;5.60;5.10;;;7.90;1.40;;;8.87;100.00;96185.78;642001;215;31539;-76
2022/03/16 11:20:53;;;;;;;6.60;4.67;;;8.00;1.40;;;9.42;100.00;96175.30;647237;212;31582;-79
2022/03/16 11:26:35;;;;;;;8.10;4.60;;;10.20;1.40;;;12.19;100.00;96173.49;647306;216;31604;-79
2022/03/16 11:29:27;;;;;;;7.73;4.67;;;10.50;1.40;;;12.26;100.00;96175.92;647120;216;31560;-78
2022/03/16 11:32:09;;;;;;;9.13;5.37;;;11.30;1.40;;;12.99;100.00;96176.13;647558;212;31615;-79
2022/03/16 11:35:57;;;;;;;8.65;5.35;;;10.40;1.40;;;12.31;100.00;96172.83;641196;216;31739;-76
2022/03/16 11:38:47;;;;;;;5.35;4.70;;;10.40;1.40;;;13.06;100.00;96173.75;642858;216;31659;-77
2022/03/16 11:41:28;;;;;;;8.15;5.40;;;11.70;1.40;;;15.37;100.00;96155.88;648626;212;42158;-80
2022/03/16 11:44:29;;;;;;;7.20;4.62;;;12.90;1.40;;;13.79;92.95;96162.02;647989;216;32166;-79
2022/03/16 11:47:33;;;;;;;8.90;5.25;;;12.20;1.40;;;15.32;100.00;96161.06;647048;216;32219;-78
2022/03/16 11:50:16;;;;;;;6.43;4.30;;;12.70;1.40;;;13.82;91.76;96163.72;649567;216;31608;-79
2022/03/16 11:53:01;;;;;;;7.12;5.18;;;12.40;1.40;;;13.44;97.78;96157.37;646618;216;31564;-78
2022/03/16 11:55:44;;;;;;;6.55;4.82;;;11.40;1.40;;;12.19;100.00;96162.13;646694;212;31603;-77
2022/03/16 11:58:27;;;;;;;5.65;4.53;;;10.70;1.40;;;11.18;100.00;96159.41;649967;212;31548;-79
2022/03/16 12:01:23;;;;;;;6.53;4.90;;;9.90;1.40;;;11.13;100.00;96159.13;620298;226;31937;-78
2022/03/16 12:04:12;;;;;;;5.93;4.65;;;10.30;1.40;;;12.77;100.00;96162.92;620328;222;31876;-78
2022/03/16 12:07:04;;;;;;;7.57;4.70;;;10.60;1.40;;;12.51;100.00;96156.96;617152;222;32475;-79
2022/03/16 12:15:15;;;;;;;5.72;4.40;;;9.10;1.40;;;9.75;100.00;96151.42;648169;216;31517;-78
2022/03/16 12:18:18;;;;;;;4.60;3.60;;;9.20;1.40;;;10.30;100.00;96146.25;619250;226;31905;-77
2022/03/16 12:21:10;;;;;;;6.10;4.65;;;9.70;1.40;;;12.42;100.00;96140.50;648202;216;42341;-77
2022/03/16 12:26:30;;;;;;;8.38;4.47;;;12.80;1.40;;;13.15;100.00;96143.83;619898;226;32117;-79
2022/03/16 12:29:12;;;;;;;6.70;4.75;;;11.30;1.40;;;11.77;100.00;96144.78;647439;216;42246;-79
2022/03/16 12:31:53;;;;;;;6.05;4.50;;;10.50;1.40;;;13.14;100.00;96138.47;648745;212;40820;-79
2022/03/16 12:36:01;;;;;;;7.10;5.22;;;10.90;1.40;;;12.23;100.00;96135.86;642251;216;31666;-76
2022/03/16 12:38:51;;;;;;;5.78;4.18;;;10.00;1.40;;;11.80;100.00;96134.98;648373;216;41652;-80
2022/03/16 12:44:22;;;;;;;5.70;4.07;;;10.50;1.40;;;12.87;100.00;96129.02;646894;212;31946;-77
2022/03/16 12:47:11;;;;;;;5.97;4.25;;;10.70;1.40;;;11.66;100.00;96134.09;620841;225;42793;-81
2022/03/16 12:49:55;;;;;;;7.25;5.12;;;10.60;1.40;;;11.44;100.00;96124.78;647370;216;31610;-79
2022/03/16 12:52:39;;;;;;;7.78;4.78;;;10.30;1.40;;;11.79;100.00;96128.03;648047;212;34672;-78
2022/03/16 12:55:24;;;;;;;6.97;5.10;;;11.50;1.40;;;13.60;100.00;96116.17;646508;216;31569;-76
2022/03/16 12:58:11;;;;;;;7.05;5.72;;;13.00;1.40;;;13.34;93.60;96120.87;619730;226;42608;-79